Airport View

Enter AWOS ICAO identifier for current METAR.

ex. KFNL

KD50 202300Z AUTO 29018KT 10SM SCT031 OVC060 M01/M05 A2998 RMK AO2

20 Oct 2020 22:49

Frequency: 118.025

Phone: 701-965-6732

Other Area AWOS: CYEN - KD60 - KISN - KPWD

TAF CYEN 201744Z 2018/2024 VRB03KT P6SM SCT008 OVC025 TEMPO 2018/2021 4SM -SN BR OVC008 FM202100 30015G25KT P6SM OVC025 TEMPO 2021/2024 5SM -SHSN OVC015 RMK FCST BASED ON AUTO OBS. NXT FCST WILL BE ISSUED AT 211145Z